Time;durP1;ratioP1;P1;durP2;ratioP2;P2;SDS_P1;SDS_P2;PMS_P1;PMS_P2;Temp;Humidity;BMP_temperature;BMP_pressure;BME280_temperature;BME280_humidity;BME280_pressure;Samples;Min_cycle;Max_cycle;Signal;HPM_P1;HPM_P2
2022/11/20 00:01:11;;;;;;;2.65;1.80;;;;;;;;;;4979767;28;20043;-84
2022/11/20 00:03:37;;;;;;;2.38;1.52;;;;;;;;;;4979960;28;20035;-84
2022/11/20 00:06:03;;;;;;;2.20;1.45;;;;;;;;;;4996312;28;20035;-83
2022/11/20 00:08:29;;;;;;;3.33;1.40;;;;;;;;;;4994987;28;20019;-85
2022/11/20 00:10:56;;;;;;;3.78;2.00;;;;;;;;;;4997489;28;20043;-83
2022/11/20 00:13:22;;;;;;;4.30;2.08;;;;;;;;;;4980055;28;20102;-86
2022/11/20 00:15:48;;;;;;;2.85;1.80;;;;;;;;;;4983871;28;20093;-82
2022/11/20 00:18:14;;;;;;;2.38;1.50;;;;;;;;;;4983367;28;20618;-82
2022/11/20 00:20:40;;;;;;;1.67;1.48;;;;;;;;;;4983530;28;20053;-83
2022/11/20 00:23:06;;;;;;;3.95;2.00;;;;;;;;;;4982462;28;20143;-84
2022/11/20 00:25:35;;;;;;;2.50;1.77;;;;;;;;;;4982868;28;20495;-83
2022/11/20 00:28:01;;;;;;;3.70;1.90;;;;;;;;;;4965676;28;20236;-83
2022/11/20 00:30:27;;;;;;;2.17;1.88;;;;;;;;;;4965720;28;20027;-82
2022/11/20 00:32:53;;;;;;;2.22;1.70;;;;;;;;;;4990623;28;20045;-82
2022/11/20 00:35:19;;;;;;;2.45;2.10;;;;;;;;;;4993755;28;20041;-82
2022/11/20 00:37:45;;;;;;;3.53;1.70;;;;;;;;;;4992497;28;20035;-82
2022/11/20 00:40:12;;;;;;;1.92;1.83;;;;;;;;;;4993489;28;20063;-82
2022/11/20 00:42:38;;;;;;;2.20;2.05;;;;;;;;;;4991367;28;20038;-81
2022/11/20 00:45:04;;;;;;;3.67;2.35;;;;;;;;;;4976162;28;20027;-82
2022/11/20 00:47:30;;;;;;;4.80;2.00;;;;;;;;;;4993583;28;20048;-82
2022/11/20 00:49:56;;;;;;;2.67;1.80;;;;;;;;;;4975933;28;20031;-81
2022/11/20 00:52:22;;;;;;;3.75;1.80;;;;;;;;;;4992596;28;20041;-81
2022/11/20 00:54:48;;;;;;;3.28;1.80;;;;;;;;;;4976817;28;20046;-82
2022/11/20 00:57:14;;;;;;;2.42;1.90;;;;;;;;;;4986629;28;20078;-82
2022/11/20 00:59:40;;;;;;;3.30;1.85;;;;;;;;;;4985246;28;20046;-81
2022/11/20 01:02:06;;;;;;;3.50;2.10;;;;;;;;;;4983229;28;20149;-81
2022/11/20 01:04:32;;;;;;;2.15;1.55;;;;;;;;;;4985769;28;20023;-81
2022/11/20 01:06:58;;;;;;;2.08;1.75;;;;;;;;;;4976486;28;20029;-82
2022/11/20 01:09:24;;;;;;;2.38;1.80;;;;;;;;;;4993115;28;20027;-84
2022/11/20 01:11:50;;;;;;;2.13;1.67;;;;;;;;;;4985056;28;20029;-82
2022/11/20 01:14:18;;;;;;;2.72;1.80;;;;;;;;;;4967562;28;20042;-83
2022/11/20 01:16:46;;;;;;;2.38;1.77;;;;;;;;;;4995180;28;20026;-82
2022/11/20 01:19:14;;;;;;;2.70;1.70;;;;;;;;;;4995803;28;20027;-82
2022/11/20 01:21:42;;;;;;;2.10;1.92;;;;;;;;;;4997121;28;20078;-83
2022/11/20 01:24:08;;;;;;;3.92;1.70;;;;;;;;;;4997165;28;20011;-84
2022/11/20 01:26:38;;;;;;;2.78;1.70;;;;;;;;;;4977313;28;20083;-84
2022/11/20 01:29:04;;;;;;;3.28;1.92;;;;;;;;;;4964767;28;20033;-83
2022/11/20 01:31:32;;;;;;;4.10;1.90;;;;;;;;;;4982394;28;20058;-82
2022/11/20 01:34:00;;;;;;;4.53;1.80;;;;;;;;;;4964917;28;20030;-82
2022/11/20 01:36:27;;;;;;;2.17;1.95;;;;;;;;;;4964400;28;20027;-82
2022/11/20 01:38:54;;;;;;;2.10;1.90;;;;;;;;;;4981287;28;20034;-82
2022/11/20 01:44:06;;;;;;;2.15;1.55;;;;;;;;;;4981456;28;20047;-83
2022/11/20 01:46:34;;;;;;;1.83;1.35;;;;;;;;;;4963384;28;20034;-84
2022/11/20 01:49:08;;;;;;;1.95;1.67;;;;;;;;;;4963716;28;20019;-83
2022/11/20 01:51:39;;;;;;;2.67;2.10;;;;;;;;;;4962694;28;20023;-81
2022/11/20 01:54:08;;;;;;;2.37;1.77;;;;;;;;;;4980736;28;20034;-82
2022/11/20 01:56:37;;;;;;;3.05;1.85;;;;;;;;;;4980411;28;20035;-82
2022/11/20 01:59:05;;;;;;;4.32;1.67;;;;;;;;;;4980539;28;20145;-83
2022/11/20 02:01:31;;;;;;;2.67;1.88;;;;;;;;;;4962205;28;20041;-83
2022/11/20 02:03:57;;;;;;;1.70;1.60;;;;;;;;;;4980056;28;20042;-84
2022/11/20 02:06:24;;;;;;;4.13;1.98;;;;;;;;;;4979930;28;20050;-83
2022/11/20 02:08:51;;;;;;;3.90;1.90;;;;;;;;;;4980352;28;20027;-82
2022/11/20 02:11:17;;;;;;;3.67;1.73;;;;;;;;;;4962614;28;20049;-84
2022/11/20 02:13:44;;;;;;;1.42;1.30;;;;;;;;;;4962384;28;20106;-84
2022/11/20 02:16:19;;;;;;;6.18;2.38;;;;;;;;;;4961353;28;20034;-84
2022/11/20 02:18:45;;;;;;;4.25;1.75;;;;;;;;;;4979990;28;20042;-83
2022/11/20 02:21:27;;;;;;;2.40;2.20;;;;;;;;;;4961898;28;20085;-84
2022/11/20 02:23:56;;;;;;;1.95;1.50;;;;;;;;;;4962088;28;20030;-81
2022/11/20 02:26:23;;;;;;;2.40;1.73;;;;;;;;;;4978590;28;20027;-80
2022/11/20 02:28:50;;;;;;;3.38;1.73;;;;;;;;;;4979407;28;20023;-82
2022/11/20 02:31:16;;;;;;;2.30;1.63;;;;;;;;;;4962378;28;20429;-82
2022/11/20 02:33:42;;;;;;;2.95;1.67;;;;;;;;;;4979418;28;20054;-81
2022/11/20 02:36:11;;;;;;;3.85;2.00;;;;;;;;;;4979975;28;20082;-81
2022/11/20 02:38:37;;;;;;;2.40;1.60;;;;;;;;;;4980723;28;20035;-82
2022/11/20 02:41:04;;;;;;;2.45;1.55;;;;;;;;;;4962422;28;20058;-83
2022/11/20 02:43:30;;;;;;;2.95;1.80;;;;;;;;;;4962431;28;20038;-82
2022/11/20 02:45:56;;;;;;;4.63;2.33;;;;;;;;;;4962710;28;20023;-81
2022/11/20 02:48:22;;;;;;;2.70;1.75;;;;;;;;;;4963049;28;20027;-82
2022/11/20 02:50:48;;;;;;;2.17;1.70;;;;;;;;;;4979727;28;20030;-82
2022/11/20 02:53:14;;;;;;;3.33;2.00;;;;;;;;;;4961070;28;20118;-82
2022/11/20 02:55:40;;;;;;;3.00;1.60;;;;;;;;;;4960127;28;20054;-82
2022/11/20 02:58:06;;;;;;;3.72;2.10;;;;;;;;;;4977250;28;20035;-82
2022/11/20 03:00:32;;;;;;;1.92;1.70;;;;;;;;;;4980898;28;20387;-83
2022/11/20 03:02:58;;;;;;;2.15;1.90;;;;;;;;;;4970617;28;20034;-82
2022/11/20 03:05:24;;;;;;;5.25;2.63;;;;;;;;;;4969965;28;20435;-83
2022/11/20 03:07:50;;;;;;;3.45;1.90;;;;;;;;;;4981590;28;20073;-81
2022/11/20 03:10:17;;;;;;;2.05;1.83;;;;;;;;;;4983321;28;20022;-86
2022/11/20 03:12:43;;;;;;;2.33;2.05;;;;;;;;;;4996170;28;20138;-82
2022/11/20 03:15:10;;;;;;;2.60;1.90;;;;;;;;;;4980362;28;20034;-81
2022/11/20 03:17:36;;;;;;;1.58;1.48;;;;;;;;;;4980001;28;20051;-82
2022/11/20 03:20:02;;;;;;;3.25;2.10;;;;;;;;;;4980431;28;20395;-81
2022/11/20 03:22:29;;;;;;;2.72;1.88;;;;;;;;;;4979803;28;20035;-81
2022/11/20 03:24:56;;;;;;;3.22;1.60;;;;;;;;;;4978914;28;20089;-81
2022/11/20 03:27:22;;;;;;;2.67;2.03;;;;;;;;;;4978718;28;20027;-81
2022/11/20 03:29:47;;;;;;;2.40;1.55;;;;;;;;;;4979449;28;20042;-82
2022/11/20 03:32:14;;;;;;;2.83;1.92;;;;;;;;;;4979279;28;20030;-82
2022/11/20 03:34:40;;;;;;;1.95;1.80;;;;;;;;;;4980621;28;20062;-81
2022/11/20 03:37:06;;;;;;;2.92;1.83;;;;;;;;;;4963475;28;20035;-81
2022/11/20 03:39:32;;;;;;;3.05;2.17;;;;;;;;;;4980250;28;20026;-81
2022/11/20 03:41:58;;;;;;;6.72;2.58;;;;;;;;;;4980361;28;20497;-82
2022/11/20 03:44:24;;;;;;;8.27;2.85;;;;;;;;;;4982845;28;20026;-81
2022/11/20 03:46:52;;;;;;;5.63;2.35;;;;;;;;;;4983325;28;20030;-82
2022/11/20 03:49:18;;;;;;;2.63;1.75;;;;;;;;;;4965337;28;20034;-83
2022/11/20 03:51:44;;;;;;;3.35;2.22;;;;;;;;;;4965415;28;20400;-82
2022/11/20 03:54:10;;;;;;;2.88;2.38;;;;;;;;;;4982669;28;20051;-83
2022/11/20 03:56:37;;;;;;;1.90;1.63;;;;;;;;;;4965880;28;20033;-83
2022/11/20 03:59:03;;;;;;;1.92;1.55;;;;;;;;;;4984484;28;20054;-81
2022/11/20 04:01:34;;;;;;;4.10;2.00;;;;;;;;;;4967151;28;20037;-81
2022/11/20 04:04:00;;;;;;;1.90;1.77;;;;;;;;;;4966167;28;20027;-81
2022/11/20 04:06:27;;;;;;;5.95;2.17;;;;;;;;;;4965475;28;20041;-82
2022/11/20 04:08:58;;;;;;;2.65;1.40;;;;;;;;;;4966672;28;20022;-83
2022/11/20 04:11:25;;;;;;;1.88;1.75;;;;;;;;;;4984539;28;20037;-82
2022/11/20 04:13:56;;;;;;;3.65;2.08;;;;;;;;;;4965562;28;20043;-83
2022/11/20 04:16:23;;;;;;;3.38;1.73;;;;;;;;;;4981636;28;20045;-84
2022/11/20 04:18:59;;;;;;;1.80;1.70;;;;;;;;;;4965052;28;20055;-83
2022/11/20 04:21:26;;;;;;;2.47;2.10;;;;;;;;;;4964663;28;20027;-83
2022/11/20 04:23:52;;;;;;;2.60;1.50;;;;;;;;;;4992654;28;20034;-82
2022/11/20 04:26:19;;;;;;;3.53;2.13;;;;;;;;;;4993777;28;20026;-80
2022/11/20 04:28:45;;;;;;;2.30;1.80;;;;;;;;;;4979225;28;20114;-80
2022/11/20 04:31:14;;;;;;;3.05;1.80;;;;;;;;;;4995682;28;20014;-80
2022/11/20 04:33:41;;;;;;;2.20;1.40;;;;;;;;;;4997532;28;20046;-80
2022/11/20 04:36:08;;;;;;;2.75;1.20;;;;;;;;;;4980312;28;20027;-81
2022/11/20 04:38:34;;;;;;;2.13;1.70;;;;;;;;;;4976500;28;20045;-80
2022/11/20 04:41:01;;;;;;;2.20;1.58;;;;;;;;;;4966167;28;20188;-81
2022/11/20 04:43:27;;;;;;;2.10;1.90;;;;;;;;;;4963914;28;20022;-82
2022/11/20 04:45:57;;;;;;;2.30;1.90;;;;;;;;;;4964884;28;20471;-82
2022/11/20 04:48:24;;;;;;;4.00;2.00;;;;;;;;;;4964272;28;20083;-83
2022/11/20 04:50:50;;;;;;;2.80;1.70;;;;;;;;;;4964787;28;20030;-83
2022/11/20 04:53:16;;;;;;;3.55;1.80;;;;;;;;;;4982239;28;20019;-82
2022/11/20 04:55:42;;;;;;;3.42;2.38;;;;;;;;;;4964419;28;20031;-84
2022/11/20 04:58:08;;;;;;;3.25;2.47;;;;;;;;;;4981895;28;20085;-82
2022/11/20 05:00:34;;;;;;;3.17;2.40;;;;;;;;;;4963820;28;20031;-82
2022/11/20 05:03:00;;;;;;;2.40;2.03;;;;;;;;;;4964521;28;20027;-82
2022/11/20 05:05:27;;;;;;;2.05;1.90;;;;;;;;;;4982484;28;20023;-81
2022/11/20 05:07:53;;;;;;;2.95;2.17;;;;;;;;;;4965950;28;20031;-83
2022/11/20 05:10:19;;;;;;;2.15;1.88;;;;;;;;;;4981785;28;20078;-86
2022/11/20 05:12:45;;;;;;;3.00;1.85;;;;;;;;;;4991488;28;20042;-81
2022/11/20 05:15:11;;;;;;;2.90;2.30;;;;;;;;;;4994495;28;20014;-82
2022/11/20 05:17:37;;;;;;;4.32;2.60;;;;;;;;;;4973921;28;20026;-84
2022/11/20 05:20:07;;;;;;;4.25;2.38;;;;;;;;;;4983533;28;20480;-84
2022/11/20 05:22:35;;;;;;;1.75;1.65;;;;;;;;;;4971014;28;20037;-83
2022/11/20 05:25:03;;;;;;;2.22;2.00;;;;;;;;;;4995756;28;20033;-80
2022/11/20 05:27:29;;;;;;;2.80;2.13;;;;;;;;;;4990994;28;20042;-84
2022/11/20 05:29:55;;;;;;;2.17;1.95;;;;;;;;;;4981943;28;20027;-84
2022/11/20 05:32:25;;;;;;;3.50;2.42;;;;;;;;;;4982087;28;20148;-83
2022/11/20 05:34:51;;;;;;;3.28;2.33;;;;;;;;;;4963058;28;20023;-83
2022/11/20 05:37:17;;;;;;;2.25;1.67;;;;;;;;;;4962337;28;20030;-85
2022/11/20 05:39:43;;;;;;;3.70;2.40;;;;;;;;;;4961708;28;20042;-83
2022/11/20 05:44:56;;;;;;;2.75;2.08;;;;;;;;;;4980395;28;20086;-82
2022/11/20 05:47:22;;;;;;;2.85;1.90;;;;;;;;;;4979946;28;20387;-84
2022/11/20 05:49:48;;;;;;;3.15;2.45;;;;;;;;;;4980399;28;20031;-84
2022/11/20 05:52:14;;;;;;;5.03;2.47;;;;;;;;;;4988401;28;20053;-85
2022/11/20 05:54:40;;;;;;;2.42;1.92;;;;;;;;;;4993443;28;20030;-82
2022/11/20 05:57:06;;;;;;;2.88;2.33;;;;;;;;;;4997295;28;20069;-83
2022/11/20 05:59:32;;;;;;;2.15;1.92;;;;;;;;;;4981578;28;20030;-84
2022/11/20 06:01:58;;;;;;;2.67;1.90;;;;;;;;;;4981666;28;20042;-84
2022/11/20 06:04:24;;;;;;;3.03;2.13;;;;;;;;;;4980632;28;20055;-82
2022/11/20 06:06:50;;;;;;;3.95;2.05;;;;;;;;;;4977477;28;20046;-85
2022/11/20 06:09:16;;;;;;;2.30;1.98;;;;;;;;;;4977589;28;20041;-83
2022/11/20 06:11:42;;;;;;;5.00;2.13;;;;;;;;;;4978221;28;20035;-83
2022/11/20 06:14:08;;;;;;;3.50;1.85;;;;;;;;;;4981764;28;20053;-83
2022/11/20 06:16:34;;;;;;;2.28;1.80;;;;;;;;;;4963956;28;20023;-82
2022/11/20 06:19:01;;;;;;;3.72;1.88;;;;;;;;;;4974446;28;20021;-83
2022/11/20 06:21:27;;;;;;;2.72;2.00;;;;;;;;;;4979450;28;20026;-81
2022/11/20 06:23:53;;;;;;;5.28;1.92;;;;;;;;;;4979109;28;20039;-85
2022/11/20 06:26:21;;;;;;;2.40;2.00;;;;;;;;;;4995491;28;20102;-82
2022/11/20 06:28:47;;;;;;;2.00;1.80;;;;;;;;;;4978164;28;20092;-82
2022/11/20 06:31:15;;;;;;;3.50;1.98;;;;;;;;;;4986003;28;20058;-83
2022/11/20 06:33:41;;;;;;;6.25;2.20;;;;;;;;;;4985408;28;20027;-82
2022/11/20 06:36:08;;;;;;;2.33;1.63;;;;;;;;;;4970154;28;20022;-82
2022/11/20 06:38:34;;;;;;;1.92;1.70;;;;;;;;;;4980053;28;20035;-82
2022/11/20 06:41:00;;;;;;;3.00;2.13;;;;;;;;;;4980793;28;20062;-85
2022/11/20 06:43:26;;;;;;;3.45;1.90;;;;;;;;;;4981213;28;20015;-85
2022/11/20 06:45:53;;;;;;;1.30;1.20;;;;;;;;;;4976892;28;20046;-85
2022/11/20 06:48:20;;;;;;;1.73;1.63;;;;;;;;;;4960903;28;20019;-83
2022/11/20 06:50:46;;;;;;;2.35;1.70;;;;;;;;;;4961560;28;20011;-86
2022/11/20 06:53:12;;;;;;;1.63;1.40;;;;;;;;;;4960447;29;20052;-84
2022/11/20 06:55:42;;;;;;;2.10;1.42;;;;;;;;;;4953534;28;20051;-84
2022/11/20 06:58:08;;;;;;;2.58;1.52;;;;;;;;;;4963126;29;20039;-85
2022/11/20 07:00:34;;;;;;;1.75;1.63;;;;;;;;;;4964061;29;20178;-83
2022/11/20 07:03:03;;;;;;;1.65;1.45;;;;;;;;;;4962597;29;20058;-84
2022/11/20 07:05:32;;;;;;;3.90;2.00;;;;;;;;;;4962873;28;20023;-82
2022/11/20 07:07:58;;;;;;;2.35;1.38;;;;;;;;;;4956380;28;20022;-85
2022/11/20 07:10:24;;;;;;;4.90;1.73;;;;;;;;;;4977399;28;20020;-83
2022/11/20 07:12:57;;;;;;;2.22;1.25;;;;;;;;;;4976325;28;20047;-83
2022/11/20 07:15:24;;;;;;;5.05;2.00;;;;;;;;;;4952393;28;20031;-83
2022/11/20 07:17:54;;;;;;;3.70;2.70;;;;;;;;;;4958024;29;20045;-83
2022/11/20 07:20:20;;;;;;;2.28;1.90;;;;;;;;;;4958483;29;20038;-81
2022/11/20 07:22:46;;;;;;;2.47;2.00;;;;;;;;;;4974024;28;20019;-82
2022/11/20 07:25:12;;;;;;;2.38;2.17;;;;;;;;;;4977300;28;20107;-83
2022/11/20 07:27:38;;;;;;;2.75;1.77;;;;;;;;;;4976808;28;20026;-83
2022/11/20 07:30:10;;;;;;;4.88;2.92;;;;;;;;;;4940569;29;20038;-84
2022/11/20 07:32:39;;;;;;;2.90;2.50;;;;;;;;;;4957066;29;20116;-85
2022/11/20 07:35:05;;;;;;;2.00;1.80;;;;;;;;;;4939992;29;20051;-83
2022/11/20 07:37:34;;;;;;;2.25;1.90;;;;;;;;;;4957399;28;20027;-85
2022/11/20 07:40:00;;;;;;;1.85;1.63;;;;;;;;;;4940774;29;20068;-83
2022/11/20 07:42:26;;;;;;;2.97;2.67;;;;;;;;;;4941198;29;20038;-84
2022/11/20 07:44:52;;;;;;;1.92;1.83;;;;;;;;;;4959113;29;20031;-82
2022/11/20 07:47:18;;;;;;;2.08;1.85;;;;;;;;;;4941008;29;20393;-83
2022/11/20 07:49:44;;;;;;;2.55;2.00;;;;;;;;;;4958285;29;20027;-81
2022/11/20 07:52:19;;;;;;;3.85;1.60;;;;;;;;;;4941966;29;20031;-85
2022/11/20 07:54:54;;;;;;;3.20;1.58;;;;;;;;;;4944188;28;20038;-83
2022/11/20 07:57:23;;;;;;;3.03;2.15;;;;;;;;;;4957555;29;20057;-83
2022/11/20 07:59:58;;;;;;;2.47;1.73;;;;;;;;;;4957975;29;20023;-84
2022/11/20 08:02:24;;;;;;;3.83;1.60;;;;;;;;;;4940113;29;20027;-83
2022/11/20 08:04:50;;;;;;;2.92;2.53;;;;;;;;;;4957680;29;20452;-85
2022/11/20 08:07:16;;;;;;;2.88;1.80;;;;;;;;;;4956197;28;20035;-84
2022/11/20 08:09:44;;;;;;;1.33;1.23;;;;;;;;;;4940649;29;20118;-84
2022/11/20 08:15:12;;;;;;;2.53;1.60;;;;;;;;;;4959235;29;20046;-84
2022/11/20 08:17:38;;;;;;;2.60;1.67;;;;;;;;;;4957684;28;20027;-83
2022/11/20 08:20:04;;;;;;;1.98;1.27;;;;;;;;;;4942324;29;20078;-84
2022/11/20 08:22:30;;;;;;;2.75;1.40;;;;;;;;;;4958088;29;20042;-83
2022/11/20 08:24:56;;;;;;;2.63;1.40;;;;;;;;;;4958725;29;20027;-85
2022/11/20 08:27:23;;;;;;;1.77;1.60;;;;;;;;;;4960371;28;20099;-83
2022/11/20 08:29:51;;;;;;;1.30;1.13;;;;;;;;;;4942884;29;20023;-82
2022/11/20 08:32:28;;;;;;;1.95;1.42;;;;;;;;;;4941799;29;20071;-84
2022/11/20 08:34:56;;;;;;;2.85;1.40;;;;;;;;;;4939569;29;20086;-83
2022/11/20 08:37:28;;;;;;;2.97;1.30;;;;;;;;;;4944594;29;20115;-84
2022/11/20 08:40:00;;;;;;;2.30;1.52;;;;;;;;;;4942966;29;20055;-82
2022/11/20 08:42:29;;;;;;;2.20;1.48;;;;;;;;;;4941953;29;20044;-82
2022/11/20 08:45:03;;;;;;;1.85;1.55;;;;;;;;;;4950491;29;20082;-82
2022/11/20 08:47:31;;;;;;;3.03;1.48;;;;;;;;;;4947265;29;20054;-82
2022/11/20 08:49:57;;;;;;;2.88;1.58;;;;;;;;;;4943499;29;20087;-81
2022/11/20 08:52:29;;;;;;;1.92;1.45;;;;;;;;;;4956134;28;20026;-80
2022/11/20 08:54:58;;;;;;;2.75;1.52;;;;;;;;;;4964907;28;20037;-83
2022/11/20 08:57:24;;;;;;;1.52;1.42;;;;;;;;;;4965296;28;20350;-82
2022/11/20 08:59:52;;;;;;;1.88;1.67;;;;;;;;;;4951631;29;20031;-82
2022/11/20 09:02:20;;;;;;;2.38;1.73;;;;;;;;;;4943375;29;20036;-83
2022/11/20 09:04:46;;;;;;;1.60;1.50;;;;;;;;;;4943912;29;20034;-83
2022/11/20 09:07:12;;;;;;;2.30;1.20;;;;;;;;;;4944057;29;20544;-83
2022/11/20 09:09:38;;;;;;;1.23;1.10;;;;;;;;;;4950961;28;20030;-87
2022/11/20 09:12:11;;;;;;;4.93;1.65;;;;;;;;;;4963521;28;20031;-84
2022/11/20 09:14:37;;;;;;;2.70;1.50;;;;;;;;;;4977779;29;20380;-83
2022/11/20 09:17:03;;;;;;;3.35;1.58;;;;;;;;;;4965493;28;20035;-82
2022/11/20 09:19:29;;;;;;;1.15;0.90;;;;;;;;;;4962535;29;20031;-82
2022/11/20 09:21:55;;;;;;;3.95;1.40;;;;;;;;;;4984059;28;20050;-81
2022/11/20 09:24:21;;;;;;;2.60;1.30;;;;;;;;;;4995244;28;20034;-81
2022/11/20 09:26:47;;;;;;;2.17;1.50;;;;;;;;;;4985965;28;20337;-83
2022/11/20 09:29:13;;;;;;;1.52;1.30;;;;;;;;;;4967541;28;20085;-81
2022/11/20 09:31:39;;;;;;;1.98;1.40;;;;;;;;;;4987052;28;20029;-81
2022/11/20 09:34:06;;;;;;;2.78;1.40;;;;;;;;;;4982913;28;20461;-82
2022/11/20 09:36:32;;;;;;;2.20;1.25;;;;;;;;;;4965637;28;20041;-81
2022/11/20 09:38:58;;;;;;;1.95;1.35;;;;;;;;;;4966534;28;20023;-82
2022/11/20 09:41:36;;;;;;;2.20;1.25;;;;;;;;;;4980275;28;20053;-81
2022/11/20 09:44:08;;;;;;;2.15;1.45;;;;;;;;;;4980992;28;20019;-81
2022/11/20 09:46:41;;;;;;;1.60;1.15;;;;;;;;;;4981043;28;20038;-81
2022/11/20 09:49:17;;;;;;;1.48;1.17;;;;;;;;;;4981076;28;20046;-82
2022/11/20 09:51:52;;;;;;;1.40;1.17;;;;;;;;;;4981194;28;20057;-81
2022/11/20 09:54:22;;;;;;;1.67;0.90;;;;;;;;;;4981626;28;20066;-81
2022/11/20 09:56:54;;;;;;;2.65;1.17;;;;;;;;;;4981463;28;20066;-82
2022/11/20 09:59:23;;;;;;;0.93;0.80;;;;;;;;;;4980947;28;20035;-82
2022/11/20 10:01:49;;;;;;;0.90;0.77;;;;;;;;;;4986962;28;20149;-82
2022/11/20 10:04:15;;;;;;;2.20;0.90;;;;;;;;;;4973358;28;20027;-82
2022/11/20 10:06:45;;;;;;;0.88;0.70;;;;;;;;;;4965776;28;20031;-82
2022/11/20 10:09:14;;;;;;;1.45;0.80;;;;;;;;;;4963047;28;20034;-82
2022/11/20 10:11:47;;;;;;;1.10;1.00;;;;;;;;;;4962317;28;20042;-82
2022/11/20 10:14:31;;;;;;;3.05;1.02;;;;;;;;;;4940219;28;1152220;-82
2022/11/20 10:17:23;;;;;;;1.20;0.70;;;;;;;;;;4980312;28;20134;-81
2022/11/20 10:19:55;;;;;;;0.93;0.60;;;;;;;;;;4963883;28;20046;-81
2022/11/20 10:22:28;;;;;;;1.65;1.10;;;;;;;;;;4981084;28;20030;-82
2022/11/20 10:25:14;;;;;;;0.95;0.63;;;;;;;;;;4981551;28;20026;-81
2022/11/20 10:27:46;;;;;;;3.13;1.00;;;;;;;;;;4981078;28;20031;-81
2022/11/20 10:30:17;;;;;;;2.25;1.25;;;;;;;;;;4982635;28;20031;-81
2022/11/20 10:32:44;;;;;;;2.20;1.20;;;;;;;;;;4982250;28;20027;-81
2022/11/20 10:35:25;;;;;;;1.70;1.05;;;;;;;;;;4967516;28;20031;-81
2022/11/20 10:37:55;;;;;;;1.38;1.00;;;;;;;;;;4982478;28;20492;-81
2022/11/20 10:40:27;;;;;;;1.67;0.88;;;;;;;;;;4965635;28;20023;-81
2022/11/20 10:42:56;;;;;;;1.65;1.00;;;;;;;;;;4963166;28;20075;-81
2022/11/20 10:45:24;;;;;;;1.67;0.82;;;;;;;;;;4981073;28;20034;-81
2022/11/20 10:47:59;;;;;;;1.23;0.90;;;;;;;;;;4962090;28;20019;-82
2022/11/20 10:50:26;;;;;;;1.23;0.88;;;;;;;;;;4980644;28;20023;-82
2022/11/20 10:53:15;;;;;;;1.08;0.98;;;;;;;;;;4962664;28;20023;-81
2022/11/20 10:55:41;;;;;;;1.65;0.95;;;;;;;;;;4981015;28;20026;-81
2022/11/20 10:58:15;;;;;;;1.70;1.10;;;;;;;;;;4962741;28;20022;-81
2022/11/20 11:00:41;;;;;;;1.17;0.77;;;;;;;;;;4980586;28;20058;-82
2022/11/20 11:03:20;;;;;;;3.80;1.38;;;;;;;;;;4980243;28;20019;-82
2022/11/20 11:05:57;;;;;;;1.10;0.75;;;;;;;;;;4981226;28;20038;-82
2022/11/20 11:08:23;;;;;;;3.72;1.08;;;;;;;;;;4990820;28;20039;-82
2022/11/20 11:10:54;;;;;;;3.22;1.05;;;;;;;;;;4994978;28;20107;-83
2022/11/20 11:13:27;;;;;;;1.58;1.20;;;;;;;;;;4980391;28;20030;-82
2022/11/20 11:15:54;;;;;;;1.33;1.00;;;;;;;;;;4981764;28;20046;-81
2022/11/20 11:18:30;;;;;;;1.70;0.68;;;;;;;;;;4978832;28;20030;-82
2022/11/20 11:20:57;;;;;;;1.65;0.70;;;;;;;;;;4980291;28;20515;-83
2022/11/20 11:23:46;;;;;;;1.40;0.70;;;;;;;;;;4985327;28;20094;-82
2022/11/20 11:26:25;;;;;;;1.25;0.90;;;;;;;;;;4976192;23;20114;-82
2022/11/20 11:28:59;;;;;;;2.10;1.15;;;;;;;;;;5000026;28;20039;-84
2022/11/20 11:31:29;;;;;;;6.28;1.20;;;;;;;;;;5006652;28;20495;-83
2022/11/20 11:34:11;;;;;;;1.30;0.80;;;;;;;;;;5008893;28;20037;-83
2022/11/20 11:36:37;;;;;;;1.05;0.73;;;;;;;;;;4995064;28;20059;-83
2022/11/20 11:39:04;;;;;;;0.95;0.77;;;;;;;;;;5009672;28;20018;-84
2022/11/20 11:41:35;;;;;;;2.90;1.02;;;;;;;;;;5009104;28;20093;-83
2022/11/20 11:47:00;;;;;;;1.35;0.98;;;;;;;;;;5009518;28;20042;-83
2022/11/20 11:49:27;;;;;;;0.77;0.77;;;;;;;;;;5009902;28;20085;-83
2022/11/20 11:52:08;;;;;;;1.50;0.93;;;;;;;;;;5010915;28;20026;-82
2022/11/20 11:54:39;;;;;;;1.05;0.88;;;;;;;;;;5010852;28;20073;-83
2022/11/20 11:57:10;;;;;;;1.08;0.85;;;;;;;;;;5025663;28;20108;-84
2022/11/20 11:59:40;;;;;;;1.58;1.02;;;;;;;;;;5028935;28;20030;-83
2022/11/20 12:02:12;;;;;;;1.60;1.02;;;;;;;;;;5013785;28;20094;-82
2022/11/20 12:04:42;;;;;;;1.45;0.88;;;;;;;;;;5029881;28;20085;-81
2022/11/20 12:07:12;;;;;;;2.75;1.20;;;;;;;;;;5030701;28;20029;-82
2022/11/20 12:09:41;;;;;;;2.38;1.13;;;;;;;;;;5031340;28;20042;-83
2022/11/20 12:12:13;;;;;;;2.55;0.85;;;;;;;;;;5031757;28;20033;-82
2022/11/20 12:14:41;;;;;;;1.83;0.90;;;;;;;;;;5030020;28;20030;-84
2022/11/20 12:17:10;;;;;;;1.80;0.98;;;;;;;;;;5030443;28;20481;-83
2022/11/20 12:19:36;;;;;;;2.50;1.15;;;;;;;;;;5030144;28;20026;-82
2022/11/20 12:22:09;;;;;;;0.90;0.90;;;;;;;;;;5032474;28;20065;-81
2022/11/20 12:24:35;;;;;;;2.33;0.80;;;;;;;;;;5031347;28;20056;-83
2022/11/20 12:27:11;;;;;;;2.30;0.93;;;;;;;;;;5029425;28;20034;-83
2022/11/20 12:30:09;;;;;;;1.40;0.95;;;;;;;;;;5027748;28;20030;-83
2022/11/20 12:32:46;;;;;;;1.60;1.00;;;;;;;;;;4994170;28;20048;-83
2022/11/20 12:35:15;;;;;;;1.20;0.80;;;;;;;;;;5031150;28;20033;-83
2022/11/20 12:38:00;;;;;;;1.10;1.00;;;;;;;;;;5017255;28;20100;-83
2022/11/20 12:40:26;;;;;;;1.95;1.05;;;;;;;;;;5012719;28;20479;-84
2022/11/20 12:46:08;;;;;;;1.38;0.88;;;;;;;;;;5026522;28;20410;-83
2022/11/20 12:48:34;;;;;;;1.08;0.80;;;;;;;;;;5019617;28;20030;-82
2022/11/20 12:51:19;;;;;;;0.70;0.70;;;;;;;;;;5027091;28;20049;-83
2022/11/20 12:53:55;;;;;;;1.23;0.90;;;;;;;;;;5032308;28;20574;-84
2022/11/20 12:56:40;;;;;;;2.58;1.00;;;;;;;;;;5030530;28;20038;-82
2022/11/20 12:59:08;;;;;;;1.25;1.13;;;;;;;;;;5031522;28;20030;-83
2022/11/20 13:01:42;;;;;;;1.10;1.00;;;;;;;;;;5032332;28;20140;-82
2022/11/20 13:04:14;;;;;;;2.63;0.90;;;;;;;;;;5011083;28;20078;-83
2022/11/20 13:06:41;;;;;;;1.80;0.95;;;;;;;;;;5010650;28;20038;-81
2022/11/20 13:09:09;;;;;;;1.23;0.80;;;;;;;;;;5033958;28;20032;-82
2022/11/20 13:11:41;;;;;;;1.50;0.95;;;;;;;;;;5030649;28;20109;-83
2022/11/20 13:14:14;;;;;;;1.63;1.00;;;;;;;;;;5038502;28;20014;-82
2022/11/20 13:16:40;;;;;;;3.30;1.00;;;;;;;;;;5036762;28;20030;-83
2022/11/20 13:19:10;;;;;;;3.38;0.90;;;;;;;;;;5035329;28;20040;-82
2022/11/20 13:21:38;;;;;;;1.80;1.13;;;;;;;;;;5034458;28;20072;-81
2022/11/20 13:24:08;;;;;;;1.00;1.00;;;;;;;;;;5031055;28;20038;-82
2022/11/20 13:26:34;;;;;;;1.35;0.73;;;;;;;;;;5010007;28;20049;-83
2022/11/20 13:29:04;;;;;;;1.10;1.00;;;;;;;;;;5009551;28;20034;-83
2022/11/20 13:31:31;;;;;;;2.22;1.08;;;;;;;;;;5031120;28;20024;-83
2022/11/20 13:33:58;;;;;;;1.83;1.25;;;;;;;;;;5029534;28;20081;-81
2022/11/20 13:36:26;;;;;;;1.40;1.13;;;;;;;;;;5013627;28;20018;-83
2022/11/20 13:38:53;;;;;;;2.78;1.23;;;;;;;;;;5010763;28;20060;-83
2022/11/20 13:41:37;;;;;;;2.47;1.10;;;;;;;;;;5010458;28;20034;-82
2022/11/20 13:44:06;;;;;;;2.42;1.10;;;;;;;;;;5009300;28;20109;-82
2022/11/20 13:46:58;;;;;;;2.30;1.42;;;;;;;;;;5024758;28;20046;-82
2022/11/20 13:49:31;;;;;;;2.28;1.50;;;;;;;;;;5026256;28;20082;-82
2022/11/20 13:51:57;;;;;;;;;;;;;;;;;;5030364;28;20086;-83
2022/11/20 13:54:51;;;;;;;4.20;1.80;;;;;;;;;;5028753;28;19905;-82
2022/11/20 13:57:36;;;;;;;2.90;1.60;;;;;;;;;;5019425;28;20421;-84
2022/11/20 14:00:11;;;;;;;3.55;1.42;;;;;;;;;;5030046;28;20502;-85
2022/11/20 14:02:37;;;;;;;3.30;1.75;;;;;;;;;;5029095;28;20034;-85
2022/11/20 14:05:04;;;;;;;3.97;1.20;;;;;;;;;;5029357;28;20064;-83
2022/11/20 14:07:38;;;;;;;2.65;1.25;;;;;;;;;;5029085;28;20104;-83
2022/11/20 14:10:04;;;;;;;1.60;1.38;;;;;;;;;;5036006;28;20053;-82
2022/11/20 14:12:31;;;;;;;2.53;1.20;;;;;;;;;;5028681;28;20060;-83
2022/11/20 14:14:58;;;;;;;1.95;1.50;;;;;;;;;;5024830;28;20479;-83
2022/11/20 14:17:34;;;;;;;1.40;1.30;;;;;;;;;;5024827;28;20037;-81
2022/11/20 14:20:03;;;;;;;1.10;1.00;;;;;;;;;;5025786;28;20037;-82
2022/11/20 14:22:29;;;;;;;3.78;1.60;;;;;;;;;;5028969;28;20041;-82
2022/11/20 14:25:19;;;;;;;3.08;1.33;;;;;;;;;;5026930;28;20109;-83
2022/11/20 14:27:52;;;;;;;1.33;1.10;;;;;;;;;;5026436;28;20041;-82
2022/11/20 14:30:25;;;;;;;3.60;1.27;;;;;;;;;;5031171;28;20022;-81
2022/11/20 14:32:53;;;;;;;1.17;0.98;;;;;;;;;;5029791;28;20026;-83
2022/11/20 14:35:22;;;;;;;1.95;1.23;;;;;;;;;;5029908;28;20026;-83
2022/11/20 14:37:48;;;;;;;0.80;0.80;;;;;;;;;;5019488;28;20454;-85
2022/11/20 14:40:26;;;;;;;1.00;0.82;;;;;;;;;;5009309;28;20034;-83
2022/11/20 14:42:52;;;;;;;1.30;1.20;;;;;;;;;;5010288;28;20035;-83
2022/11/20 14:45:19;;;;;;;1.00;0.80;;;;;;;;;;5010902;28;20193;-85
2022/11/20 14:47:45;;;;;;;1.08;0.90;;;;;;;;;;5015746;28;20068;-83
2022/11/20 14:50:16;;;;;;;3.47;1.20;;;;;;;;;;5019997;28;20030;-82
2022/11/20 14:52:50;;;;;;;2.15;1.48;;;;;;;;;;5009487;28;20086;-84
2022/11/20 14:55:25;;;;;;;1.58;0.90;;;;;;;;;;5008873;28;20027;-84
2022/11/20 14:57:55;;;;;;;1.95;1.02;;;;;;;;;;5009612;28;20012;-84
2022/11/20 15:00:22;;;;;;;1.17;1.02;;;;;;;;;;5019170;28;20022;-83
2022/11/20 15:02:49;;;;;;;1.60;0.70;;;;;;;;;;5028726;28;20038;-85
2022/11/20 15:05:16;;;;;;;1.23;0.82;;;;;;;;;;5029447;28;20299;-85
2022/11/20 15:07:47;;;;;;;1.60;0.90;;;;;;;;;;5027789;28;20025;-83